Time;durP1;ratioP1;P1;durP2;ratioP2;P2;SDS_P1;SDS_P2;PMS_P1;PMS_P2;Temp;Humidity;BMP_temperature;BMP_pressure;BME280_temperature;BME280_humidity;BME280_pressure;Samples;Min_cycle;Max_cycle;Signal;HPM_P1;HPM_P2
2022/07/29 00:00:22;;;;;;;;;;;;;;;13.53;94.99;99861.39;1701078;83;20117;-76
2022/07/29 00:02:51;;;;;;;;;;;;;;;13.48;95.25;99858.80;1701543;84;20114;-76
2022/07/29 00:05:17;;;;;;;;;;;;;;;13.48;95.51;99857.42;1701790;84;20094;-77
2022/07/29 00:07:51;;;;;;;;;;;;;;;13.45;95.48;99855.32;1680943;84;20449;-76
2022/07/29 00:10:24;;;;;;;;;;;;;;;13.43;95.65;99863.11;1701510;83;20090;-78
2022/07/29 00:12:48;;;;;;;;;;;;;;;13.39;95.82;99864.90;1700768;84;20094;-73
2022/07/29 00:15:23;;;;;;;;;;;;;;;13.36;96.15;99866.93;1701558;83;20180;-74
2022/07/29 00:18:01;;;;;;;;;;;;;;;13.33;96.38;99874.47;1680797;84;20110;-74
2022/07/29 00:20:33;;;;;;;;;;;;;;;13.29;96.37;99863.85;1697798;84;20102;-76
2022/07/29 00:22:50;;;;;;;;;;;;;;;13.28;96.44;99866.40;1698202;84;21814;-76
2022/07/29 00:25:23;;;;;;;;;;;;;;;13.27;96.56;99866.16;1700979;84;20102;-76
2022/07/29 00:27:56;;;;;;;;;;;;;;;13.26;96.60;99864.53;1690443;84;20074;-76
2022/07/29 00:30:24;;;;;;;;;;;;;;;13.24;96.50;99862.67;1695346;84;20120;-78
2022/07/29 00:32:52;;;;;;;;;;;;;;;13.20;96.57;99866.08;1700551;84;20082;-76
2022/07/29 00:38:06;;;;;;;;;;;;;;;13.16;96.58;99856.03;1701384;84;20118;-76
2022/07/29 00:40:36;;;;;;;;;;;;;;;13.13;96.81;99845.62;1701489;84;20114;-76
2022/07/29 00:43:05;;;;;;;;;;;;;;;13.09;96.88;99848.22;1678148;84;20110;-77
2022/07/29 00:45:32;;;;;;;;;;;;;;;13.06;97.01;99850.24;1701410;84;20453;-77
2022/07/29 00:48:03;;;;;;;;;;;;;;;13.05;97.25;99848.63;1701498;84;21153;-77
2022/07/29 00:50:34;;;;;;;;;;;;;;;13.03;97.27;99844.56;1700505;84;20163;-77
2022/07/29 00:53:06;;;;;;;;;;;;;;;13.01;97.27;99839.95;1701550;84;20102;-77
2022/07/29 00:55:40;;;;;;;;;;;;;;;12.99;97.42;99843.03;1658173;84;20444;-77
2022/07/29 00:58:13;;;;;;;;;;;;;;;12.97;97.52;99847.24;1701735;84;20504;-77
2022/07/29 01:00:40;;;;;;;;;;;;;;;12.94;97.71;99839.05;1700096;84;21272;-77
2022/07/29 01:03:08;;;;;;;;;;;;;;;12.92;97.74;99839.95;1701381;84;20162;-77
2022/07/29 01:05:36;;;;;;;;;;;;;;;12.89;97.72;99843.34;1701540;84;20086;-77
2022/07/29 01:08:11;;;;;;;;;;;;;;;12.85;97.93;99841.00;1701565;84;20703;-77
2022/07/29 01:10:40;;;;;;;;;;;;;;;12.83;98.15;99836.38;1701724;84;20086;-77
2022/07/29 01:13:09;;;;;;;;;;;;;;;12.82;98.33;99840.27;1700748;84;21170;-77
2022/07/29 01:15:41;;;;;;;;;;;;;;;12.80;98.31;99839.78;1701467;84;20090;-77
2022/07/29 01:18:32;;;;;;;;;;;;;;;12.78;98.38;99833.78;1701478;84;20090;-77
2022/07/29 01:21:18;;;;;;;;;;;;;;;12.77;98.64;99828.02;1700535;84;20161;-75
2022/07/29 01:24:09;;;;;;;;;;;;;;;12.75;98.91;99821.46;1701034;84;20449;-75
2022/07/29 01:26:52;;;;;;;;;;;;;;;12.74;98.99;99825.34;1701538;84;21812;-75
2022/07/29 01:29:34;;;;;;;;;;;;;;;12.75;99.14;99824.78;1701564;84;20453;-75
2022/07/29 01:32:13;;;;;;;;;;;;;;;12.74;99.19;99826.73;1701574;84;20074;-75
2022/07/29 01:34:54;;;;;;;;;;;;;;;12.72;99.41;99829.56;1701525;84;20086;-75
2022/07/29 01:37:54;;;;;;;;;;;;;;;12.70;99.25;99832.67;1684561;84;20139;-76
2022/07/29 01:40:22;;;;;;;;;;;;;;;12.66;99.34;99828.94;1701282;83;21296;-76
2022/07/29 01:42:58;;;;;;;;;;;;;;;12.64;99.52;99827.64;1701745;84;20130;-76
2022/07/29 01:45:31;;;;;;;;;;;;;;;12.62;99.52;99829.91;1681490;84;33737;-78
2022/07/29 01:48:10;;;;;;;;;;;;;;;12.60;99.39;99840.43;1700779;83;20086;-77
2022/07/29 01:50:41;;;;;;;;;;;;;;;12.58;99.37;99837.19;1680702;84;20111;-77
2022/07/29 01:53:12;;;;;;;;;;;;;;;12.55;99.92;99845.53;1684114;84;21146;-76
2022/07/29 01:55:45;;;;;;;;;;;;;;;12.51;100.00;99835.72;1701539;84;20444;-76
2022/07/29 01:58:14;;;;;;;;;;;;;;;12.48;100.00;99837.73;1680848;84;20464;-75
2022/07/29 02:00:43;;;;;;;;;;;;;;;12.45;100.00;99838.38;1681687;84;20134;-76
2022/07/29 02:03:15;;;;;;;;;;;;;;;12.43;100.00;99831.57;1682196;84;20142;-75
2022/07/29 02:05:56;;;;;;;;;;;;;;;12.41;100.00;99837.40;1701679;83;22169;-78
2022/07/29 02:08:16;;;;;;;;;;;;;;;12.40;100.00;99836.34;1697948;84;20139;-77
2022/07/29 02:10:47;;;;;;;;;;;;;;;12.39;100.00;99840.22;1701258;84;20098;-78
2022/07/29 02:13:15;;;;;;;;;;;;;;;12.36;100.00;99843.62;1682012;84;20126;-80
2022/07/29 02:15:45;;;;;;;;;;;;;;;12.35;100.00;99844.75;1681650;84;20449;-79
2022/07/29 02:18:17;;;;;;;;;;;;;;;12.34;100.00;99845.88;1701652;84;21589;-80
2022/07/29 02:20:55;;;;;;;;;;;;;;;12.32;100.00;99846.77;1701534;83;20161;-79
2022/07/29 02:23:23;;;;;;;;;;;;;;;12.29;100.00;99850.97;1701609;84;20456;-79
2022/07/29 02:25:58;;;;;;;;;;;;;;;12.26;100.00;99850.80;1701104;84;20627;-79
2022/07/29 02:28:34;;;;;;;;;;;;;;;12.23;100.00;99849.48;1701464;83;20090;-78
2022/07/29 02:31:01;;;;;;;;;;;;;;;12.21;100.00;99847.06;1681589;84;20082;-77
2022/07/29 02:33:29;;;;;;;;;;;;;;;12.20;100.00;99841.87;1701416;84;20139;-77
2022/07/29 02:35:58;;;;;;;;;;;;;;;12.21;100.00;99840.17;1700463;84;20098;-80
2022/07/29 02:41:28;;;;;;;;;;;;;;;12.22;100.00;99843.17;1675407;84;20158;-76
2022/07/29 02:43:58;;;;;;;;;;;;;;;12.22;100.00;99840.98;1670949;84;21182;-77
2022/07/29 02:46:35;;;;;;;;;;;;;;;12.21;100.00;99841.55;1695488;84;20087;-76
2022/07/29 02:49:27;;;;;;;;;;;;;;;12.22;100.00;99843.73;1675039;84;20106;-77
2022/07/29 02:51:58;;;;;;;;;;;;;;;12.24;100.00;99844.23;1697050;83;20616;-77
2022/07/29 02:54:41;;;;;;;;;;;;;;;12.26;100.00;99846.09;1676367;84;20118;-77
2022/07/29 02:57:27;;;;;;;;;;;;;;;12.30;100.00;99847.66;1697102;84;21642;-82
2022/07/29 03:00:02;;;;;;;;;;;;;;;12.32;100.00;99848.14;1692334;84;20091;-81
2022/07/29 03:02:28;;;;;;;;;;;;;;;12.34;100.00;99850.01;1677750;84;20086;-79
2022/07/29 03:05:03;;;;;;;;;;;;;;;12.38;100.00;99848.23;1676749;84;20461;-76
2022/07/29 03:07:32;;;;;;;;;;;;;;;12.42;100.00;99850.59;1696454;84;20098;-82
2022/07/29 03:10:00;;;;;;;;;;;;;;;12.46;100.00;99845.51;1696759;83;20122;-81
2022/07/29 03:12:33;;;;;;;;;;;;;;;12.52;100.00;99854.43;1675469;84;20122;-82
2022/07/29 03:14:57;;;;;;;;;;;;;;;12.57;100.00;99854.28;1696610;83;20139;-82
2022/07/29 03:17:27;;;;;;;;;;;;;;;12.64;100.00;99850.48;1696814;83;20147;-82
2022/07/29 03:20:00;;;;;;;;;;;;;;;12.74;100.00;99854.84;1696827;83;20114;-82
2022/07/29 03:22:30;;;;;;;;;;;;;;;12.80;100.00;99852.98;1696507;84;21145;-81
2022/07/29 03:25:10;;;;;;;;;;;;;;;12.86;100.00;99857.20;1696118;84;20457;-84
2022/07/29 03:27:42;;;;;;;;;;;;;;;12.95;100.00;99855.83;1696645;84;20484;-84
2022/07/29 03:30:11;;;;;;;;;;;;;;;13.03;100.00;99855.02;1696771;84;20642;-84
2022/07/29 03:32:41;;;;;;;;;;;;;;;13.13;100.00;99861.59;1696714;83;20165;-77
2022/07/29 03:35:08;;;;;;;;;;;;;;;13.23;100.00;99853.59;1696818;83;20813;-78
2022/07/29 03:37:36;;;;;;;;;;;;;;;13.34;100.00;99854.03;1699726;84;20133;-78
2022/07/29 03:40:10;;;;;;;;;;;;;;;13.42;100.00;99852.64;1701557;84;20110;-78
2022/07/29 03:42:39;;;;;;;;;;;;;;;13.53;100.00;99858.06;1701554;83;20449;-79
2022/07/29 03:45:10;;;;;;;;;;;;;;;13.65;100.00;99857.39;1701551;84;20149;-78
2022/07/29 03:47:53;;;;;;;;;;;;;;;13.80;100.00;99861.56;1701567;84;21230;-78
2022/07/29 03:50:22;;;;;;;;;;;;;;;13.98;100.00;99863.11;1701069;84;20154;-78
2022/07/29 03:52:52;;;;;;;;;;;;;;;14.13;100.00;99858.41;1701567;84;20428;-84
2022/07/29 03:55:21;;;;;;;;;;;;;;;14.27;100.00;99860.14;1679844;84;20099;-80
2022/07/29 03:57:51;;;;;;;;;;;;;;;14.35;100.00;99858.72;1682641;84;20089;-84
2022/07/29 04:00:19;;;;;;;;;;;;;;;14.43;100.00;99864.80;1701525;84;21552;-81
2022/07/29 04:02:48;;;;;;;;;;;;;;;14.50;100.00;99869.20;1701418;84;20141;-80
2022/07/29 04:05:18;;;;;;;;;;;;;;;14.58;100.00;99864.77;1679024;84;20449;-80
2022/07/29 04:08:02;;;;;;;;;;;;;;;14.69;100.00;99871.52;1701465;83;20117;-81
2022/07/29 04:10:25;;;;;;;;;;;;;;;14.82;100.00;99869.66;1697806;84;20098;-80
2022/07/29 04:12:54;;;;;;;;;;;;;;;14.98;100.00;99864.33;1701128;84;21178;-80
2022/07/29 04:15:22;;;;;;;;;;;;;;;15.16;100.00;99867.16;1701705;83;20086;-80
2022/07/29 04:17:53;;;;;;;;;;;;;;;15.36;100.00;99866.34;1701491;84;20086;-79
2022/07/29 04:20:21;;;;;;;;;;;;;;;15.57;100.00;99864.14;1680583;84;20408;-75
2022/07/29 04:23:06;;;;;;;;;;;;;;;15.79;100.00;99860.37;1697358;84;20086;-76
2022/07/29 04:25:23;;;;;;;;;;;;;;;16.03;100.00;99860.98;1697837;84;21581;-79
2022/07/29 04:28:00;;;;;;;;;;;;;;;16.33;100.00;99865.71;1701498;84;20122;-78
2022/07/29 04:30:32;;;;;;;;;;;;;;;16.61;95.57;99863.05;1681008;84;20443;-79
2022/07/29 04:33:07;;;;;;;;;;;;;;;16.94;92.95;99869.81;1681119;84;20157;-79
2022/07/29 04:35:39;;;;;;;;;;;;;;;17.24;89.38;99862.56;1682779;84;20098;-85
2022/07/29 04:38:07;;;;;;;;;;;;;;;17.52;87.77;99860.56;1701164;84;21075;-82
2022/07/29 04:40:33;;;;;;;;;;;;;;;17.77;87.90;99859.31;1700397;84;20413;-82
2022/07/29 04:43:04;;;;;;;;;;;;;;;17.97;86.44;99853.84;1701362;83;20090;-79
2022/07/29 04:45:38;;;;;;;;;;;;;;;18.12;83.57;99858.02;1681213;84;20134;-82
2022/07/29 04:48:06;;;;;;;;;;;;;;;18.26;83.50;99858.95;1700526;84;20078;-81
2022/07/29 04:50:39;;;;;;;;;;;;;;;18.40;82.76;99858.49;1700973;84;21183;-89
2022/07/29 04:53:09;;;;;;;;;;;;;;;18.54;81.70;99858.00;1699900;84;20165;-74
2022/07/29 04:55:41;;;;;;;;;;;;;;;18.70;80.87;99857.41;1700545;84;20125;-73
2022/07/29 04:58:15;;;;;;;;;;;;;;;18.87;77.99;99856.20;1700531;84;20090;-73
2022/07/29 05:00:43;;;;;;;;;;;;;;;19.06;75.89;99858.40;1700951;84;20082;-75
2022/07/29 05:03:14;;;;;;;;;;;;;;;19.24;72.83;99851.02;1681034;84;20141;-76
2022/07/29 05:05:49;;;;;;;;;;;;;;;19.42;70.96;99852.19;1701507;84;20433;-80
2022/07/29 05:08:17;;;;;;;;;;;;;;;19.61;70.65;99847.21;1700766;84;20118;-77
2022/07/29 05:10:51;;;;;;;;;;;;;;;19.79;69.01;99844.14;1701364;84;20125;-81
2022/07/29 05:13:21;;;;;;;;;;;;;;;20.00;65.66;99849.30;1701408;83;20114;-85
2022/07/29 05:15:49;;;;;;;;;;;;;;;20.18;64.63;99844.83;1701000;84;21148;-79
2022/07/29 05:18:20;;;;;;;;;;;;;;;20.37;63.67;99845.31;1701451;84;20102;-80
2022/07/29 05:20:50;;;;;;;;;;;;;;;20.56;61.79;99840.26;1701402;84;20178;-80
2022/07/29 05:23:24;;;;;;;;;;;;;;;20.70;61.08;99844.66;1681430;84;20118;-82
2022/07/29 05:25:56;;;;;;;;;;;;;;;20.75;59.60;99842.34;1701463;84;20086;-83
2022/07/29 05:28:27;;;;;;;;;;;;;;;20.76;60.61;99843.16;1701458;84;22144;-83
2022/07/29 05:31:01;;;;;;;;;;;;;;;20.76;60.17;99837.57;1680915;84;20418;-82
2022/07/29 05:33:26;;;;;;;;;;;;;;;20.74;59.02;99844.92;1701169;84;20086;-79
2022/07/29 05:35:55;;;;;;;;;;;;;;;20.72;58.46;99843.69;1694405;84;20157;-86
2022/07/29 05:38:23;;;;;;;;;;;;;;;20.70;58.75;99839.08;1690320;84;20086;-71
2022/07/29 05:40:54;;;;;;;;;;;;;;;20.74;58.77;99848.30;1678223;84;21198;-78
2022/07/29 05:43:21;;;;;;;;;;;;;;;20.81;58.79;99851.75;1672458;86;20100;-72
2022/07/29 05:45:49;;;;;;;;;;;;;;;20.90;58.23;99849.49;1673379;86;20152;-71
2022/07/29 05:48:19;;;;;;;;;;;;;;;21.02;58.68;99849.27;1673293;86;20077;-69
2022/07/29 05:50:51;;;;;;;;;;;;;;;21.17;56.74;99849.66;1673505;85;20104;-73
2022/07/29 05:53:22;;;;;;;;;;;;;;;21.30;55.86;99853.05;1672883;86;21119;-71
2022/07/29 05:55:48;;;;;;;;;;;;;;;21.44;55.19;99853.19;1671889;85;20181;-71
2022/07/29 05:58:16;;;;;;;;;;;;;;;21.58;54.20;99844.97;1651949;86;20123;-72
2022/07/29 06:00:49;;;;;;;;;;;;;;;21.73;54.23;99849.52;1652232;86;20128;-74
2022/07/29 06:03:21;;;;;;;;;;;;;;;21.87;53.26;99848.87;1673115;86;20150;-74
2022/07/29 06:05:49;;;;;;;;;;;;;;;22.02;53.56;99849.81;1652871;86;20096;-79
2022/07/29 06:08:22;;;;;;;;;;;;;;;22.17;52.23;99852.95;1673270;86;20463;-78
2022/07/29 06:10:49;;;;;;;;;;;;;;;22.31;52.58;99848.07;1674584;84;20501;-75
2022/07/29 06:13:23;;;;;;;;;;;;;;;22.44;53.43;99848.57;1682747;84;20078;-74
2022/07/29 06:15:58;;;;;;;;;;;;;;;22.59;50.38;99848.85;1683505;83;20086;-77
2022/07/29 06:18:23;;;;;;;;;;;;;;;22.74;51.57;99853.35;1679571;84;21136;-76
2022/07/29 06:20:54;;;;;;;;;;;;;;;22.87;50.30;99850.47;1697087;83;20123;-73
2022/07/29 06:23:24;;;;;;;;;;;;;;;22.98;49.12;99853.33;1696663;84;20126;-74
2022/07/29 06:25:55;;;;;;;;;;;;;;;23.05;49.46;99847.17;1696839;84;20136;-73
2022/07/29 06:28:27;;;;;;;;;;;;;;;23.16;50.30;99847.79;1696632;83;20118;-73
2022/07/29 06:30:55;;;;;;;;;;;;;;;23.28;49.54;99846.05;1675949;84;20086;-78
2022/07/29 06:33:27;;;;;;;;;;;;;;;23.42;49.96;99854.50;1695591;84;20151;-73
2022/07/29 06:35:59;;;;;;;;;;;;;;;23.56;49.42;99852.38;1686543;84;20226;-72
2022/07/29 06:38:28;;;;;;;;;;;;;;;23.65;46.23;99853.61;1685124;85;20100;-74
2022/07/29 06:41:02;;;;;;;;;;;;;;;23.73;46.05;99853.59;1685082;84;20134;-74
2022/07/29 06:43:42;;;;;;;;;;;;;;;23.81;47.14;99849.61;1685081;84;21110;-74
2022/07/29 06:46:05;;;;;;;;;;;;;;;23.90;46.69;99844.42;1682374;84;20143;-73
2022/07/29 06:48:34;;;;;;;;;;;;;;;24.02;46.52;99847.65;1684705;85;20455;-73
2022/07/29 06:51:03;;;;;;;;;;;;;;;24.15;45.88;99848.06;1663331;85;20179;-73
2022/07/29 06:53:37;;;;;;;;;;;;;;;24.27;46.57;99851.88;1684922;85;20182;-73
2022/07/29 06:56:04;;;;;;;;;;;;;;;24.36;46.10;99850.87;1685632;85;20141;-73
2022/07/29 06:58:33;;;;;;;;;;;;;;;24.51;45.40;99850.86;1685233;85;20100;-72
2022/07/29 07:01:05;;;;;;;;;;;;;;;24.64;43.97;99846.44;1681745;84;20104;-72
2022/07/29 07:03:36;;;;;;;;;;;;;;;24.72;44.99;99851.44;1685292;83;21811;-77
2022/07/29 07:06:07;;;;;;;;;;;;;;;24.81;44.65;99849.81;1673043;85;20431;-76
2022/07/29 07:08:36;;;;;;;;;;;;;;;24.88;43.65;99852.58;1683708;83;21083;-73
2022/07/29 07:11:08;;;;;;;;;;;;;;;24.96;42.98;99844.36;1714010;82;20282;-71
2022/07/29 07:13:36;;;;;;;;;;;;;;;25.05;43.63;99845.95;1706464;83;20102;-79
2022/07/29 07:16:09;;;;;;;;;;;;;;;25.17;43.14;99849.11;1701780;84;20142;-78
2022/07/29 07:18:40;;;;;;;;;;;;;;;25.28;42.94;99854.70;1701542;83;20472;-77
2022/07/29 07:21:09;;;;;;;;;;;;;;;25.36;42.08;99852.66;1701846;83;22256;-75
2022/07/29 07:23:39;;;;;;;;;;;;;;;25.37;42.49;99859.27;1701400;84;20114;-74
2022/07/29 07:26:10;;;;;;;;;;;;;;;25.39;42.10;99853.25;1701237;83;20157;-78
2022/07/29 07:28:39;;;;;;;;;;;;;;;25.43;42.67;99850.59;1701478;84;20201;-77
2022/07/29 07:31:09;;;;;;;;;;;;;;;25.60;43.25;99855.32;1701003;83;20462;-71
2022/07/29 07:33:38;;;;;;;;;;;;;;;25.70;41.99;99857.11;1701453;83;21166;-73
2022/07/29 07:36:06;;;;;;;;;;;;;;;25.74;41.34;99866.33;1680817;84;20410;-76
2022/07/29 07:38:36;;;;;;;;;;;;;;;25.76;42.29;99859.69;1701381;84;20078;-77
2022/07/29 07:41:08;;;;;;;;;;;;;;;25.81;41.05;99859.25;1706348;83;20150;-77
2022/07/29 07:43:39;;;;;;;;;;;;;;;25.95;41.96;99861.98;1696604;84;20078;-75
2022/07/29 07:46:02;;;;;;;;;;;;;;;26.07;40.68;99859.25;1696176;84;21158;-77
2022/07/29 07:48:32;;;;;;;;;;;;;;;26.18;39.87;99863.59;1696661;84;20102;-77
2022/07/29 07:51:01;;;;;;;;;;;;;;;26.20;40.29;99858.34;1696732;84;20425;-71
2022/07/29 07:53:31;;;;;;;;;;;;;;;26.30;39.53;99865.11;1675036;84;20130;-77
2022/07/29 07:56:04;;;;;;;;;;;;;;;26.41;40.26;99865.85;1696799;84;20086;-75
2022/07/29 07:58:30;;;;;;;;;;;;;;;26.58;40.43;99859.84;1696788;84;21115;-74
2022/07/29 08:00:58;;;;;;;;;;;;;;;26.75;39.40;99862.30;1696634;84;20130;-76
2022/07/29 08:03:43;;;;;;;;;;;;;;;26.95;38.91;99855.64;1696127;84;20137;-75
2022/07/29 08:06:00;;;;;;;;;;;;;;;27.14;39.90;99864.13;1691074;84;20113;-77
2022/07/29 08:08:31;;;;;;;;;;;;;;;27.32;39.12;99864.49;1696539;83;20202;-73
2022/07/29 08:11:05;;;;;;;;;;;;;;;27.52;37.47;99870.47;1695790;83;21135;-75
2022/07/29 08:13:31;;;;;;;;;;;;;;;27.56;37.52;99871.22;1695894;84;20424;-81
2022/07/29 08:16:00;;;;;;;;;;;;;;;27.69;37.93;99867.26;1696716;83;20122;-79
2022/07/29 08:18:29;;;;;;;;;;;;;;;27.99;37.82;99874.86;1675670;84;20122;-71
2022/07/29 08:20:57;;;;;;;;;;;;;;;28.26;35.83;99877.09;1696719;84;20122;-74
2022/07/29 08:23:26;;;;;;;;;;;;;;;28.20;35.41;99877.36;1696622;83;21051;-73
2022/07/29 08:26:00;;;;;;;;;;;;;;;28.13;35.27;99875.25;1696653;84;20122;-72
2022/07/29 08:28:27;;;;;;;;;;;;;;;28.21;35.28;99878.16;1676794;84;20086;-72
2022/07/29 08:31:01;;;;;;;;;;;;;;;28.48;35.98;99870.45;1675411;84;20126;-74
2022/07/29 08:33:34;;;;;;;;;;;;;;;28.85;35.00;99868.62;1696720;84;20109;-78
2022/07/29 08:36:00;;;;;;;;;;;;;;;29.01;35.00;99860.83;1695717;84;21173;-72
2022/07/29 08:38:30;;;;;;;;;;;;;;;29.24;35.61;99868.63;1696613;84;20119;-77
2022/07/29 08:40:59;;;;;;;;;;;;;;;29.60;35.72;99862.85;1696602;84;20532;-76
2022/07/29 08:43:29;;;;;;;;;;;;;;;29.74;34.86;99859.09;1701368;84;20086;-77
2022/07/29 08:46:00;;;;;;;;;;;;;;;29.50;33.53;99862.64;1673123;84;20469;-74
2022/07/29 08:48:28;;;;;;;;;;;;;;;29.12;34.76;99862.83;1701487;84;20126;-75
2022/07/29 08:50:55;;;;;;;;;;;;;;;28.71;34.16;99862.58;1701697;83;20441;-76
2022/07/29 08:53:26;;;;;;;;;;;;;;;28.23;35.91;99868.06;1701546;84;20078;-71
2022/07/29 08:55:59;;;;;;;;;;;;;;;27.76;35.69;99861.48;1679692;84;20090;-72
2022/07/29 08:58:33;;;;;;;;;;;;;;;27.54;36.90;99853.93;1700404;83;20086;-76
2022/07/29 09:00:58;;;;;;;;;;;;;;;27.60;37.75;99864.95;1685903;84;20106;-75
2022/07/29 09:03:34;;;;;;;;;;;;;;;27.98;38.01;99862.59;1659707;84;20090;-85
2022/07/29 09:06:01;;;;;;;;;;;;;;;28.42;35.27;99857.25;1681754;84;20110;-87
2022/07/29 09:08:32;;;;;;;;;;;;;;;28.82;35.43;99847.68;1700592;84;20508;-80
2022/07/29 09:11:00;;;;;;;;;;;;;;;29.27;36.02;99841.52;1701248;84;20476;-83
2022/07/29 09:13:37;;;;;;;;;;;;;;;29.68;33.09;99847.31;1701517;84;21254;-80
2022/07/29 09:16:06;;;;;;;;;;;;;;;29.49;34.32;99853.18;1699861;84;20185;-80
2022/07/29 09:18:40;;;;;;;;;;;;;;;29.07;35.76;99854.85;1700810;84;20098;-80
2022/07/29 09:24:06;;;;;;;;;;;;;;;28.34;36.62;99857.18;1701519;84;20231;-73
2022/07/29 09:26:40;;;;;;;;;;;;;;;28.10;37.52;99860.59;1701436;84;21238;-72
2022/07/29 09:29:14;;;;;;;;;;;;;;;28.01;37.69;99856.09;1681302;84;20094;-71
2022/07/29 09:31:43;;;;;;;;;;;;;;;28.01;38.78;99854.69;1701538;84;20418;-72
2022/07/29 09:34:10;;;;;;;;;;;;;;;27.92;36.44;99848.16;1701096;84;20685;-73
2022/07/29 09:36:43;;;;;;;;;;;;;;;27.73;36.72;99851.05;1701434;84;20126;-74
2022/07/29 09:39:09;;;;;;;;;;;;;;;27.89;38.16;99856.86;1701099;83;21143;-75
2022/07/29 09:41:52;;;;;;;;;;;;;;;28.47;37.80;99845.46;1701216;84;20078;-80
2022/07/29 09:44:19;;;;;;;;;;;;;;;29.10;36.65;99841.27;1701312;84;20102;-73
2022/07/29 09:47:06;;;;;;;;;;;;;;;29.66;34.36;99842.71;1701396;84;20437;-74
2022/07/29 09:49:33;;;;;;;;;;;;;;;29.94;33.92;99839.23;1701484;84;20111;-75
2022/07/29 09:52:11;;;;;;;;;;;;;;;30.01;34.33;99840.51;1701432;83;20107;-76
2022/07/29 09:54:44;;;;;;;;;;;;;;;30.00;35.03;99840.33;1681513;84;20106;-78
2022/07/29 09:57:14;;;;;;;;;;;;;;;29.96;35.31;99837.38;1701345;84;20114;-80
2022/07/29 09:59:43;;;;;;;;;;;;;;;30.06;34.99;99835.70;1698118;84;20436;-78
2022/07/29 10:02:13;;;;;;;;;;;;;;;30.26;34.22;99835.63;1681442;84;20448;-78
2022/07/29 10:04:46;;;;;;;;;;;;;;;30.59;34.27;99832.18;1701378;83;20959;-81
2022/07/29 10:07:10;;;;;;;;;;;;;;;30.80;32.43;99829.36;1701386;83;20086;-80
2022/07/29 10:09:47;;;;;;;;;;;;;;;30.80;33.25;99832.20;1700682;83;20118;-83
2022/07/29 10:12:14;;;;;;;;;;;;;;;30.64;32.09;99828.78;1700073;84;20656;-79
2022/07/29 10:14:43;;;;;;;;;;;;;;;30.28;33.49;99826.69;1701177;84;20114;-73
2022/07/29 10:17:18;;;;;;;;;;;;;;;30.12;34.49;99828.28;1681212;84;20102;-76
2022/07/29 10:19:46;;;;;;;;;;;;;;;30.23;34.98;99826.60;1701204;84;20098;-73
2022/07/29 10:22:12;;;;;;;;;;;;;;;30.55;33.67;99820.11;1701628;84;20098;-74
2022/07/29 10:24:41;;;;;;;;;;;;;;;30.92;32.89;99824.99;1701346;84;20674;-78
2022/07/29 10:27:08;;;;;;;;;;;;;;;31.16;32.69;99815.02;1701225;83;20181;-77
2022/07/29 10:29:37;;;;;;;;;;;;;;;31.48;31.33;99816.25;1681147;84;20441;-78
2022/07/29 10:32:18;;;;;;;;;;;;;;;31.74;31.67;99814.27;1701495;84;20086;-77
2022/07/29 10:35:10;;;;;;;;;;;;;;;31.97;31.56;99815.94;1701457;83;20193;-73
2022/07/29 10:37:58;;;;;;;;;;;;;;;32.31;30.86;99811.61;1701370;83;20461;-74
2022/07/29 10:43:23;;;;;;;;;;;;;;;32.72;29.74;99812.77;1697320;84;21158;-72
2022/07/29 10:45:49;;;;;;;;;;;;;;;32.46;29.52;99814.90;1681859;84;20110;-75
2022/07/29 10:48:18;;;;;;;;;;;;;;;32.20;30.52;99816.83;1664984;85;20119;-76
2022/07/29 10:51:05;;;;;;;;;;;;;;;31.94;29.47;99808.33;1673244;86;20216;-76
2022/07/29 10:53:52;;;;;;;;;;;;;;;31.70;29.92;99805.69;1673179;86;20109;-75
2022/07/29 10:56:29;;;;;;;;;;;;;;;31.38;29.79;99808.06;1673179;86;21164;-74
2022/07/29 10:59:21;;;;;;;;;;;;;;;31.01;31.58;99810.34;1673169;83;21005;-77
2022/07/29 11:01:48;;;;;;;;;;;;;;;30.83;32.00;99811.47;1709965;83;20215;-76
2022/07/29 11:04:16;;;;;;;;;;;;;;;30.63;33.24;99807.36;1716105;83;20269;-72
2022/07/29 11:07:02;;;;;;;;;;;;;;;30.44;32.18;99812.52;1714635;83;20095;-75
2022/07/29 11:09:30;;;;;;;;;;;;;;;30.20;33.01;99810.50;1720987;83;21976;-75
2022/07/29 11:11:57;;;;;;;;;;;;;;;29.91;32.41;99811.81;1721026;83;20214;-74
2022/07/29 11:15:00;;;;;;;;;;;;;;;29.67;32.94;99814.60;1720977;83;20075;-73
2022/07/29 11:17:22;;;;;;;;;;;;;;;29.54;33.98;99808.21;1720165;83;20528;-81
2022/07/29 11:19:49;;;;;;;;;;;;;;;29.40;34.06;99806.31;1721216;83;20104;-74
2022/07/29 11:22:54;;;;;;;;;;;;;;;29.25;35.57;99808.03;1721026;83;21151;-74
2022/07/29 11:25:16;;;;;;;;;;;;;;;29.19;34.92;99801.30;1718082;83;20071;-76
2022/07/29 11:27:43;;;;;;;;;;;;;;;29.19;36.20;99799.88;1721176;83;20157;-70
2022/07/29 11:30:11;;;;;;;;;;;;;;;29.09;36.57;99796.66;1720841;83;20087;-71
2022/07/29 11:32:41;;;;;;;;;;;;;;;28.98;36.38;99796.70;1724853;83;20150;-71
2022/07/29 11:35:23;;;;;;;;;;;;;;;28.95;36.73;99795.53;1720836;83;21156;-71
2022/07/29 11:38:19;;;;;;;;;;;;;;;28.89;36.11;99792.42;1720875;83;20143;-71
2022/07/29 11:41:06;;;;;;;;;;;;;;;28.79;37.61;99796.25;1719942;83;20095;-72
2022/07/29 11:43:54;;;;;;;;;;;;;;;28.73;36.68;99792.95;1720902;83;20443;-75
2022/07/29 11:46:46;;;;;;;;;;;;;;;28.78;36.56;99793.24;1720636;83;20556;-71
2022/07/29 11:49:13;;;;;;;;;;;;;;;28.92;38.34;99787.31;1721199;83;21271;-72
2022/07/29 11:51:42;;;;;;;;;;;;;;;29.04;36.58;99787.89;1720072;83;20147;-71
2022/07/29 11:54:09;;;;;;;;;;;;;;;29.28;36.22;99788.60;1700023;83;20117;-71
2022/07/29 11:56:35;;;;;;;;;;;;;;;29.60;33.92;99790.72;1684025;84;20091;-71
2022/07/29 11:59:06;;;;;;;;;;;;;;;29.77;32.73;99786.68;1689417;84;20511;-72
2022/07/29 12:01:33;;;;;;;;;;;;;;;30.08;34.51;99789.97;1701276;84;21164;-71
2022/07/29 12:04:06;;;;;;;;;;;;;;;30.59;32.75;99780.39;1701104;83;20122;-71
2022/07/29 12:06:34;;;;;;;;;;;;;;;31.18;32.69;99782.13;1687666;84;20445;-71
2022/07/29 12:09:09;;;;;;;;;;;;;;;31.90;33.03;99781.31;1653615;87;20081;-71
2022/07/29 12:11:35;;;;;;;;;;;;;;;32.39;29.57;99781.05;1669056;83;20118;-70
2022/07/29 12:14:02;;;;;;;;;;;;;;;32.47;29.00;99778.75;1670919;84;21111;-77
2022/07/29 12:16:37;;;;;;;;;;;;;;;32.30;28.26;99778.78;1686730;84;20088;-76
2022/07/29 12:19:03;;;;;;;;;;;;;;;31.97;29.67;99775.40;1701039;84;20086;-75
2022/07/29 12:21:46;;;;;;;;;;;;;;;31.78;29.33;99773.77;1701294;83;20462;-75
2022/07/29 12:24:14;;;;;;;;;;;;;;;31.57;28.67;99769.39;1701013;84;20151;-74
2022/07/29 12:26:57;;;;;;;;;;;;;;;31.31;29.28;99774.24;1701200;84;21129;-74
2022/07/29 12:29:24;;;;;;;;;;;;;;;31.11;30.53;99768.76;1701051;84;20118;-75
2022/07/29 12:31:56;;;;;;;;;;;;;;;30.94;30.96;99770.87;1700534;83;20461;-72
2022/07/29 12:34:23;;;;;;;;;;;;;;;30.78;31.00;99766.67;1700989;84;20159;-75
2022/07/29 12:36:50;;;;;;;;;;;;;;;30.72;31.28;99765.01;1701144;84;20106;-76
2022/07/29 12:39:18;;;;;;;;;;;;;;;30.71;32.28;99764.03;1701036;83;20133;-85
2022/07/29 12:41:46;;;;;;;;;;;;;;;30.61;33.12;99763.74;1701000;83;20135;-81
2022/07/29 12:44:13;;;;;;;;;;;;;;;30.44;33.21;99760.13;1672679;85;20144;-79
2022/07/29 12:46:40;;;;;;;;;;;;;;;30.23;34.13;99758.03;1674180;84;20105;-76
2022/07/29 12:49:06;;;;;;;;;;;;;;;30.00;32.47;99759.66;1653891;85;20124;-79
2022/07/29 12:51:36;;;;;;;;;;;;;;;29.72;34.10;99751.22;1674738;85;22137;-78
2022/07/29 12:54:05;;;;;;;;;;;;;;;29.56;35.60;99754.83;1674228;84;20088;-77
2022/07/29 12:56:32;;;;;;;;;;;;;;;29.47;35.72;99750.39;1674590;84;20148;-74
2022/07/29 12:58:58;;;;;;;;;;;;;;;29.39;35.37;99748.96;1674274;85;20119;-74
2022/07/29 13:01:27;;;;;;;;;;;;;;;29.35;35.93;99749.66;1674781;85;20125;-75
2022/07/29 13:03:56;;;;;;;;;;;;;;;29.43;35.10;99744.67;1638539;84;21166;-74
2022/07/29 13:06:42;;;;;;;;;;;;;;;29.68;34.85;99744.05;1640452;87;20078;-76
2022/07/29 13:09:15;;;;;;;;;;;;;;;30.19;32.68;99733.26;1647095;87;20183;-76
2022/07/29 13:11:49;;;;;;;;;;;;;;;30.92;30.43;99731.46;1647331;87;20678;-76
2022/07/29 13:14:32;;;;;;;;;;;;;;;31.31;30.59;99732.50;1647388;87;20090;-75
2022/07/29 13:17:04;;;;;;;;;;;;;;;31.88;30.56;99723.57;1647222;87;21247;-75
2022/07/29 13:19:34;;;;;;;;;;;;;;;32.59;28.67;99717.45;1647366;86;20107;-75